Time;durP1;ratioP1;P1;durP2;ratioP2;P2;SDS_P1;SDS_P2;PMS_P1;PMS_P2;Temp;Humidity;BMP_temperature;BMP_pressure;BME280_temperature;BME280_humidity;BME280_pressure;Samples;Min_cycle;Max_cycle;Signal;HPM_P1;HPM_P2
2021/09/24 00:02:01;;;;;;;8.50;6.38;;;16.80;1.00;;;;;;5050525;28;20033;-80
2021/09/24 00:04:28;;;;;;;12.38;6.75;;;16.70;1.00;;;;;;5044852;28;20024;-79
2021/09/24 00:06:54;;;;;;;9.02;6.45;;;16.70;1.00;;;;;;5049085;28;20035;-79
2021/09/24 00:09:20;;;;;;;7.53;6.82;;;16.60;1.00;;;;;;5040741;28;20116;-79
2021/09/24 00:11:46;;;;;;;9.20;6.55;;;16.50;1.00;;;;;;5045447;28;20029;-79
2021/09/24 00:14:12;;;;;;;9.40;7.10;;;16.50;1.00;;;;;;5038091;28;20088;-79
2021/09/24 00:16:46;;;;;;;8.90;7.38;;;16.50;1.00;;;;;;5046732;28;20037;-79
2021/09/24 00:19:12;;;;;;;10.65;7.32;;;16.50;1.00;;;;;;5049537;28;20055;-80
2021/09/24 00:21:38;;;;;;;7.10;6.35;;;16.50;1.00;;;;;;5049260;28;20083;-80
2021/09/24 00:24:04;;;;;;;7.82;6.97;;;16.60;1.00;;;;;;5049358;28;20033;-79
2021/09/24 00:26:30;;;;;;;9.68;7.10;;;16.60;1.00;;;;;;5049959;28;20390;-79
2021/09/24 00:28:57;;;;;;;9.18;6.75;;;16.30;1.00;;;;;;5050542;28;20409;-79
2021/09/24 00:31:24;;;;;;;9.05;7.05;;;16.30;1.00;;;;;;5048973;28;20493;-78
2021/09/24 00:33:49;;;;;;;9.05;6.40;;;16.30;1.00;;;;;;5049222;28;20088;-79
2021/09/24 00:36:15;;;;;;;8.88;7.15;;;16.30;1.00;;;;;;5048097;28;20509;-79
2021/09/24 00:38:41;;;;;;;9.10;6.68;;;16.20;1.00;;;;;;5049294;28;20049;-80
2021/09/24 00:41:08;;;;;;;11.02;7.47;;;16.40;1.00;;;;;;5033930;28;20032;-79
2021/09/24 00:43:33;;;;;;;11.45;6.78;;;16.30;1.00;;;;;;5052026;28;20113;-79
2021/09/24 00:46:04;;;;;;;8.25;7.45;;;16.30;1.00;;;;;;5052938;28;20117;-79
2021/09/24 00:48:31;;;;;;;8.15;6.80;;;16.40;1.00;;;;;;5053068;28;20036;-79
2021/09/24 00:50:57;;;;;;;9.02;7.38;;;16.30;1.00;;;;;;5053488;28;20100;-78
2021/09/24 00:53:24;;;;;;;8.70;7.03;;;16.30;1.00;;;;;;5054062;28;20029;-78
2021/09/24 00:55:49;;;;;;;8.13;7.22;;;16.40;1.00;;;;;;5054284;28;20420;-78
2021/09/24 00:58:15;;;;;;;9.82;7.28;;;16.30;1.00;;;;;;5052660;28;20036;-79
2021/09/24 01:00:41;;;;;;;10.82;7.47;;;16.30;1.00;;;;;;5052324;28;20025;-78
2021/09/24 01:03:07;;;;;;;10.18;6.95;;;16.40;1.00;;;;;;5053231;28;20037;-79
2021/09/24 01:05:32;;;;;;;9.05;7.55;;;16.20;1.00;;;;;;5053113;28;20370;-78
2021/09/24 01:08:00;;;;;;;7.68;6.85;;;16.10;1.00;;;;;;5054476;28;20115;-78
2021/09/24 01:10:25;;;;;;;8.05;7.22;;;16.00;1.00;;;;;;5052431;28;20033;-79
2021/09/24 01:12:51;;;;;;;7.97;7.15;;;16.10;1.00;;;;;;5052781;28;20116;-79
2021/09/24 01:15:19;;;;;;;9.13;7.40;;;16.00;1.00;;;;;;5052100;28;20402;-79
2021/09/24 01:17:45;;;;;;;9.63;7.95;;;16.00;1.00;;;;;;5034783;28;20511;-78
2021/09/24 01:20:13;;;;;;;8.32;7.40;;;16.20;1.00;;;;;;5036543;28;20493;-78
2021/09/24 01:22:38;;;;;;;8.85;7.50;;;16.20;1.00;;;;;;5050957;28;20036;-78
2021/09/24 01:25:07;;;;;;;8.15;7.35;;;16.00;1.00;;;;;;5052621;28;20025;-78
2021/09/24 01:27:33;;;;;;;10.52;7.25;;;16.00;1.00;;;;;;5034134;28;20400;-78
2021/09/24 01:29:59;;;;;;;8.65;7.10;;;16.10;1.00;;;;;;5051679;28;20108;-78
2021/09/24 01:32:25;;;;;;;9.13;7.47;;;16.10;1.00;;;;;;5050052;28;20154;-78
2021/09/24 01:34:51;;;;;;;7.68;6.93;;;16.20;1.00;;;;;;5053190;28;20040;-78
2021/09/24 01:37:17;;;;;;;9.10;7.20;;;16.20;1.00;;;;;;5052123;28;20363;-78
2021/09/24 01:39:42;;;;;;;11.88;8.02;;;16.10;1.00;;;;;;5051919;28;20029;-78
2021/09/24 01:42:08;;;;;;;13.02;7.75;;;16.00;1.00;;;;;;5046109;28;20032;-79
2021/09/24 01:44:34;;;;;;;8.48;7.28;;;16.00;1.00;;;;;;5033974;28;20032;-78
2021/09/24 01:47:00;;;;;;;8.05;7.22;;;15.90;1.00;;;;;;5052118;28;20056;-78
2021/09/24 01:49:26;;;;;;;11.55;7.72;;;15.80;1.00;;;;;;5051784;28;20021;-78
2021/09/24 01:51:51;;;;;;;8.40;7.32;;;15.90;1.00;;;;;;5049891;28;20627;-79
2021/09/24 01:54:20;;;;;;;9.85;7.07;;;15.90;1.00;;;;;;5052128;28;20028;-78
2021/09/24 01:56:45;;;;;;;10.10;7.60;;;15.90;1.00;;;;;;5051992;28;20029;-78
2021/09/24 01:59:11;;;;;;;8.73;7.47;;;16.00;1.00;;;;;;5053372;28;20106;-78
2021/09/24 02:01:37;;;;;;;9.90;7.53;;;16.00;1.00;;;;;;5050114;28;20401;-78
2021/09/24 02:04:03;;;;;;;9.50;7.43;;;16.00;1.00;;;;;;5050628;28;20094;-79
2021/09/24 02:06:29;;;;;;;10.00;7.60;;;16.00;1.00;;;;;;5049805;28;20025;-79
2021/09/24 02:08:55;;;;;;;8.05;7.25;;;15.90;1.00;;;;;;5036568;28;20029;-78
2021/09/24 02:11:21;;;;;;;7.80;7.00;;;15.90;1.00;;;;;;5052677;28;20035;-78
2021/09/24 02:13:46;;;;;;;10.02;7.05;;;15.90;1.00;;;;;;5050445;28;20072;-78
2021/09/24 02:16:12;;;;;;;8.10;7.18;;;15.80;1.00;;;;;;5051475;28;20547;-79
2021/09/24 02:18:39;;;;;;;8.80;7.50;;;15.70;1.00;;;;;;5051210;28;20027;-79
2021/09/24 02:21:06;;;;;;;7.95;7.15;;;15.70;1.00;;;;;;5051448;28;20049;-79
2021/09/24 02:23:32;;;;;;;8.35;7.55;;;15.80;1.00;;;;;;5052032;28;20482;-78
2021/09/24 02:25:58;;;;;;;9.60;7.43;;;15.80;1.00;;;;;;5052435;28;20116;-78
2021/09/24 02:28:24;;;;;;;9.02;7.60;;;15.60;1.00;;;;;;5051018;28;20067;-78
2021/09/24 02:30:49;;;;;;;9.00;8.10;;;15.60;1.00;;;;;;5049305;28;20420;-78
2021/09/24 02:33:15;;;;;;;8.32;7.22;;;15.50;1.00;;;;;;5051428;28;20544;-78
2021/09/24 02:35:41;;;;;;;9.43;8.35;;;15.50;1.00;;;;;;5051671;28;20043;-78
2021/09/24 02:38:07;;;;;;;8.60;7.80;;;15.50;1.00;;;;;;5053134;28;20401;-78
2021/09/24 02:40:33;;;;;;;7.82;7.03;;;15.50;1.00;;;;;;5049632;28;20496;-78
2021/09/24 02:42:58;;;;;;;8.05;7.05;;;15.40;1.00;;;;;;5050795;28;20037;-79
2021/09/24 02:45:24;;;;;;;7.47;6.78;;;15.40;1.00;;;;;;5050835;28;20027;-78
2021/09/24 02:47:50;;;;;;;7.93;6.75;;;15.50;1.00;;;;;;5051305;28;20060;-78
2021/09/24 02:50:15;;;;;;;10.10;6.70;;;15.40;1.00;;;;;;5053650;28;20017;-78
2021/09/24 02:52:41;;;;;;;7.45;6.65;;;15.40;1.00;;;;;;5050462;28;20508;-78
2021/09/24 02:55:08;;;;;;;7.78;6.97;;;15.40;1.00;;;;;;5050361;28;20029;-78
2021/09/24 02:57:34;;;;;;;8.48;7.55;;;15.50;1.00;;;;;;5050169;28;20497;-79
2021/09/24 03:00:00;;;;;;;7.97;7.18;;;15.60;1.00;;;;;;5050717;28;20017;-78
2021/09/24 03:02:26;;;;;;;10.35;6.35;;;15.40;1.00;;;;;;5052314;28;20033;-78
2021/09/24 03:04:51;;;;;;;8.23;7.43;;;15.40;1.00;;;;;;5050236;28;20068;-78
2021/09/24 03:07:17;;;;;;;8.52;7.40;;;15.40;1.00;;;;;;5050170;28;20520;-78
2021/09/24 03:09:42;;;;;;;9.85;6.95;;;15.30;1.00;;;;;;5049009;28;20025;-78
2021/09/24 03:12:08;;;;;;;7.65;6.88;;;15.10;1.00;;;;;;5050352;28;20063;-78
2021/09/24 03:14:34;;;;;;;7.75;7.05;;;15.10;1.00;;;;;;5050404;28;20593;-78
2021/09/24 03:17:00;;;;;;;8.65;7.30;;;15.10;1.00;;;;;;5051988;28;20049;-78
2021/09/24 03:19:26;;;;;;;8.00;7.20;;;15.10;1.00;;;;;;5049779;28;20060;-78
2021/09/24 03:21:51;;;;;;;9.88;7.25;;;15.10;1.00;;;;;;5050204;28;20150;-78
2021/09/24 03:24:18;;;;;;;9.32;7.32;;;15.00;1.00;;;;;;5049740;28;20033;-78
2021/09/24 03:26:44;;;;;;;9.68;7.03;;;15.20;1.00;;;;;;5050038;28;20036;-78
2021/09/24 03:29:10;;;;;;;8.80;7.40;;;15.10;1.00;;;;;;5051871;28;20485;-78
2021/09/24 03:31:40;;;;;;;9.13;7.13;;;15.10;1.00;;;;;;5050558;28;20802;-78
2021/09/24 03:34:07;;;;;;;9.48;7.50;;;15.00;1.00;;;;;;5050197;28;20025;-78
2021/09/24 03:36:34;;;;;;;8.68;7.75;;;15.10;1.00;;;;;;5049624;28;20385;-78
2021/09/24 03:39:00;;;;;;;8.32;7.53;;;15.10;1.00;;;;;;5049496;28;20025;-78
2021/09/24 03:41:26;;;;;;;9.07;7.72;;;15.00;1.00;;;;;;5050976;28;20079;-80
2021/09/24 03:43:51;;;;;;;9.82;7.88;;;15.00;1.00;;;;;;5051160;28;20056;-78
2021/09/24 03:46:17;;;;;;;10.38;7.72;;;15.00;1.00;;;;;;5049663;28;20116;-78
2021/09/24 03:48:43;;;;;;;8.63;7.43;;;15.00;1.00;;;;;;5049887;28;20385;-78
2021/09/24 03:51:08;;;;;;;9.07;7.75;;;15.00;1.00;;;;;;5049688;28;20017;-78
2021/09/24 03:53:34;;;;;;;8.40;7.60;;;15.00;1.00;;;;;;5049615;28;20032;-79
2021/09/24 03:56:00;;;;;;;9.68;7.63;;;15.00;1.00;;;;;;5051032;28;20545;-78
2021/09/24 03:58:25;;;;;;;8.00;7.15;;;14.90;1.00;;;;;;5037816;28;20046;-78
2021/09/24 04:00:51;;;;;;;10.93;7.88;;;14.90;1.00;;;;;;5046415;28;20028;-78
2021/09/24 04:03:17;;;;;;;8.25;7.25;;;14.90;1.00;;;;;;5049008;28;20065;-80
2021/09/24 04:05:44;;;;;;;8.50;7.60;;;14.90;1.00;;;;;;5049481;28;20025;-80
2021/09/24 04:08:10;;;;;;;10.68;7.70;;;15.00;1.00;;;;;;5050825;28;20486;-81
2021/09/24 04:10:35;;;;;;;11.75;8.18;;;15.00;1.00;;;;;;5045160;28;20025;-79
2021/09/24 04:13:01;;;;;;;11.68;8.20;;;14.90;1.00;;;;;;5048111;28;20068;-79
2021/09/24 04:15:27;;;;;;;10.63;8.32;;;14.80;1.00;;;;;;5049473;28;20464;-80
2021/09/24 04:17:52;;;;;;;8.05;7.35;;;14.80;1.00;;;;;;5049025;28;20124;-79
2021/09/24 04:20:18;;;;;;;10.93;8.88;;;14.70;1.00;;;;;;5051271;28;20124;-80
2021/09/24 04:22:44;;;;;;;10.63;8.52;;;14.70;1.00;;;;;;5048887;28;20112;-79
2021/09/24 04:25:10;;;;;;;9.45;8.32;;;14.80;1.00;;;;;;5049495;28;20025;-79
2021/09/24 04:27:36;;;;;;;10.55;8.10;;;14.70;1.00;;;;;;5041842;28;20033;-81
2021/09/24 04:30:03;;;;;;;9.95;7.80;;;14.70;1.00;;;;;;5049166;28;20029;-80
2021/09/24 04:32:29;;;;;;;10.60;8.52;;;14.70;1.00;;;;;;5050313;28;20493;-80
2021/09/24 04:34:55;;;;;;;9.63;8.65;;;14.70;1.00;;;;;;5049900;28;20032;-79
2021/09/24 04:37:20;;;;;;;11.25;8.35;;;14.80;1.00;;;;;;5048367;28;20041;-80
2021/09/24 04:39:46;;;;;;;10.15;7.95;;;14.80;1.00;;;;;;5047294;28;20025;-79
2021/09/24 04:42:12;;;;;;;14.10;9.88;;;14.70;1.00;;;;;;5049518;28;20112;-81
2021/09/24 04:44:38;;;;;;;11.10;9.07;;;14.70;1.00;;;;;;5049159;28;20024;-80
2021/09/24 04:47:04;;;;;;;11.82;8.80;;;14.80;1.00;;;;;;5051272;28;20025;-80
2021/09/24 04:49:30;;;;;;;10.90;9.38;;;14.70;1.00;;;;;;5048891;28;20029;-80
2021/09/24 04:51:55;;;;;;;10.43;8.68;;;14.70;1.00;;;;;;5048719;28;20029;-78
2021/09/24 04:54:21;;;;;;;9.95;8.73;;;14.80;1.00;;;;;;5049191;28;20428;-79
2021/09/24 04:56:46;;;;;;;9.90;8.93;;;14.90;1.00;;;;;;5048636;28;20043;-78
2021/09/24 04:59:12;;;;;;;11.45;9.30;;;14.70;1.00;;;;;;5050849;28;20025;-78
2021/09/24 05:01:38;;;;;;;15.13;10.02;;;14.70;1.00;;;;;;5040326;28;20087;-78
2021/09/24 05:04:03;;;;;;;13.05;9.70;;;14.70;1.00;;;;;;5042426;28;20033;-78
2021/09/24 05:06:29;;;;;;;12.65;9.27;;;14.70;1.00;;;;;;5047851;28;20039;-79
2021/09/24 05:08:55;;;;;;;12.40;9.25;;;14.70;1.00;;;;;;5048027;28;20120;-79
2021/09/24 05:11:21;;;;;;;12.98;9.80;;;14.60;1.00;;;;;;5049685;28;20025;-78
2021/09/24 05:13:46;;;;;;;10.70;9.52;;;14.60;1.00;;;;;;5047565;28;20128;-78
2021/09/24 05:16:12;;;;;;;11.55;9.43;;;14.60;1.00;;;;;;5047069;28;20103;-77
2021/09/24 05:18:38;;;;;;;11.05;9.63;;;14.60;1.00;;;;;;5047928;28;20060;-79
2021/09/24 05:21:04;;;;;;;11.98;9.57;;;14.60;1.00;;;;;;5048137;28;20057;-79
2021/09/24 05:23:30;;;;;;;11.45;9.77;;;14.50;1.00;;;;;;5048627;28;20029;-79
2021/09/24 05:25:56;;;;;;;11.77;9.93;;;14.40;1.00;;;;;;5049117;28;20025;-79
2021/09/24 05:28:22;;;;;;;11.98;9.70;;;14.40;1.00;;;;;;5050275;28;20056;-78
2021/09/24 05:30:47;;;;;;;13.07;10.40;;;14.40;1.00;;;;;;5051546;28;20067;-79
2021/09/24 05:33:13;;;;;;;13.73;10.38;;;14.40;1.00;;;;;;5051489;28;20029;-79
2021/09/24 05:35:39;;;;;;;15.15;10.95;;;14.60;1.00;;;;;;5050236;28;20350;-79
2021/09/24 05:38:04;;;;;;;16.80;10.73;;;14.70;1.00;;;;;;5053366;28;20041;-78
2021/09/24 05:40:30;;;;;;;13.38;11.93;;;14.70;1.00;;;;;;5051151;28;20497;-78
2021/09/24 05:42:56;;;;;;;15.30;11.85;;;14.80;1.00;;;;;;5051001;28;20108;-79
2021/09/24 05:45:21;;;;;;;12.48;10.75;;;14.80;1.00;;;;;;5051203;28;20029;-79
2021/09/24 05:47:48;;;;;;;13.07;10.77;;;14.70;1.00;;;;;;5047609;28;20437;-78
2021/09/24 05:50:14;;;;;;;16.02;10.43;;;14.60;1.00;;;;;;5052833;28;20025;-79
2021/09/24 05:52:43;;;;;;;11.60;10.32;;;14.40;1.00;;;;;;5050294;28;20033;-76
2021/09/24 05:55:09;;;;;;;13.55;10.57;;;14.50;1.00;;;;;;5050423;28;20033;-78
2021/09/24 05:57:35;;;;;;;13.90;10.23;;;14.70;1.00;;;;;;5051429;28;20044;-78
2021/09/24 06:00:01;;;;;;;13.20;10.30;;;14.80;1.00;;;;;;5052109;28;20029;-78
2021/09/24 06:02:26;;;;;;;17.02;10.07;;;14.90;1.00;;;;;;5053146;28;20159;-77
2021/09/24 06:04:52;;;;;;;13.98;10.55;;;14.90;1.00;;;;;;5051686;28;20102;-78
2021/09/24 06:07:18;;;;;;;15.70;9.80;;;14.80;1.00;;;;;;5051865;28;20116;-79
2021/09/24 06:09:44;;;;;;;13.70;9.82;;;14.50;1.00;;;;;;5051605;28;20037;-78
2021/09/24 06:12:09;;;;;;;19.45;10.20;;;14.70;1.00;;;;;;5051407;28;20025;-79
2021/09/24 06:14:36;;;;;;;11.38;9.27;;;14.70;1.00;;;;;;5051687;28;20489;-78
2021/09/24 06:17:02;;;;;;;13.20;10.23;;;14.80;1.00;;;;;;5053394;28;20385;-77
2021/09/24 06:19:27;;;;;;;12.25;10.20;;;14.90;1.00;;;;;;5050887;28;20039;-77
2021/09/24 06:21:53;;;;;;;13.65;10.27;;;14.90;1.00;;;;;;5051590;28;20016;-79
2021/09/24 06:24:18;;;;;;;14.52;9.45;;;15.20;1.00;;;;;;5049509;28;20552;-78
2021/09/24 06:26:44;;;;;;;9.95;8.75;;;15.20;1.00;;;;;;5051566;28;20032;-78
2021/09/24 06:29:10;;;;;;;11.60;9.77;;;15.20;1.00;;;;;;5053111;28;20025;-79
2021/09/24 06:31:35;;;;;;;16.73;10.27;;;15.20;1.00;;;;;;5051097;28;20027;-79
2021/09/24 06:34:01;;;;;;;19.45;11.00;;;15.30;1.00;;;;;;5049335;28;20493;-79
2021/09/24 06:36:26;;;;;;;13.85;10.40;;;15.40;1.00;;;;;;5050963;28;20032;-79
2021/09/24 06:38:52;;;;;;;11.75;10.43;;;15.40;1.00;;;;;;5043385;28;20036;-79
2021/09/24 06:41:18;;;;;;;15.00;10.80;;;15.70;1.00;;;;;;5050783;28;20035;-79
2021/09/24 06:43:43;;;;;;;16.17;10.52;;;15.70;1.00;;;;;;5049661;28;20029;-80
2021/09/24 06:46:09;;;;;;;13.65;10.68;;;15.70;1.00;;;;;;5051808;28;20033;-80
2021/09/24 06:48:35;;;;;;;13.70;10.80;;;15.70;1.00;;;;;;5050365;28;20040;-80
2021/09/24 06:51:03;;;;;;;18.00;10.75;;;15.80;1.00;;;;;;5050792;28;20420;-80
2021/09/24 06:53:28;;;;;;;13.90;11.43;;;15.90;1.00;;;;;;5052063;28;20100;-83
2021/09/24 06:55:57;;;;;;;14.20;11.30;;;16.00;1.00;;;;;;5051878;28;20119;-86
2021/09/24 06:58:23;;;;;;;18.08;11.32;;;16.20;1.00;;;;;;5050338;28;20497;-80
2021/09/24 07:00:49;;;;;;;14.30;10.70;;;16.30;1.00;;;;;;5050473;28;20063;-78
2021/09/24 07:03:15;;;;;;;13.10;10.82;;;16.40;1.00;;;;;;5048679;28;20052;-79
2021/09/24 07:05:40;;;;;;;13.00;10.02;;;16.30;1.00;;;;;;5050778;28;20104;-82
2021/09/24 07:08:06;;;;;;;15.18;11.57;;;16.50;1.00;;;;;;5039179;28;20033;-79
2021/09/24 07:10:31;;;;;;;14.95;12.63;;;16.50;1.00;;;;;;5046497;28;20021;-80
2021/09/24 07:12:57;;;;;;;15.35;12.27;;;16.50;1.00;;;;;;5048976;28;20057;-80
2021/09/24 07:15:23;;;;;;;14.55;13.05;;;16.30;1.00;;;;;;5050253;28;20060;-80
2021/09/24 07:17:49;;;;;;;15.48;13.50;;;16.40;1.00;;;;;;5050039;28;20065;-80
2021/09/24 07:20:15;;;;;;;17.85;13.45;;;16.50;1.00;;;;;;5052125;28;20027;-80
2021/09/24 07:22:41;;;;;;;16.10;12.35;;;16.50;1.00;;;;;;5050336;28;20064;-80
2021/09/24 07:25:07;;;;;;;17.55;13.95;;;16.50;1.00;;;;;;5049963;28;20064;-80
2021/09/24 07:27:33;;;;;;;19.13;15.20;;;16.70;1.00;;;;;;5048415;28;20036;-80
2021/09/24 07:29:59;;;;;;;19.77;14.65;;;16.70;1.00;;;;;;5050564;28;20112;-80
2021/09/24 07:32:25;;;;;;;17.33;13.98;;;16.70;1.00;;;;;;5051091;28;20115;-80
2021/09/24 07:34:51;;;;;;;22.30;16.35;;;17.00;1.00;;;;;;5048900;28;20017;-80
2021/09/24 07:37:17;;;;;;;20.60;16.52;;;16.90;1.00;;;;;;5050078;28;20519;-80
2021/09/24 07:39:42;;;;;;;19.75;16.42;;;17.10;1.00;;;;;;5050849;28;20035;-80
2021/09/24 07:42:08;;;;;;;19.60;15.85;;;17.20;1.00;;;;;;5049573;28;20056;-80
2021/09/24 07:44:34;;;;;;;19.75;16.15;;;17.30;1.00;;;;;;5050296;28;20036;-80
2021/09/24 07:47:00;;;;;;;19.80;17.05;;;17.50;1.00;;;;;;5050797;28;20029;-81
2021/09/24 07:49:26;;;;;;;22.52;17.40;;;17.60;1.00;;;;;;5049921;28;20033;-80
2021/09/24 07:51:53;;;;;;;19.63;15.60;;;17.60;1.00;;;;;;5047738;28;20020;-80
2021/09/24 07:54:21;;;;;;;21.48;16.52;;;17.60;1.00;;;;;;5049732;28;20024;-80
2021/09/24 07:56:48;;;;;;;22.35;16.83;;;17.70;1.00;;;;;;5049592;28;20043;-80
2021/09/24 07:59:14;;;;;;;19.52;16.63;;;17.70;1.00;;;;;;5051720;28;20139;-80
2021/09/24 08:01:40;;;;;;;23.15;17.48;;;17.70;1.00;;;;;;5049383;28;20067;-80
2021/09/24 08:04:05;;;;;;;20.48;15.93;;;17.70;1.00;;;;;;5049432;28;20036;-80
2021/09/24 08:06:31;;;;;;;22.73;17.30;;;17.70;1.00;;;;;;5049732;28;20036;-80
2021/09/24 08:08:56;;;;;;;21.77;17.17;;;17.80;1.00;;;;;;5049439;28;20061;-80
2021/09/24 08:11:22;;;;;;;23.70;17.13;;;17.90;1.00;;;;;;5051855;28;20039;-80
2021/09/24 08:13:48;;;;;;;21.98;17.40;;;18.00;1.00;;;;;;5048040;28;20413;-81
2021/09/24 08:16:13;;;;;;;25.13;18.27;;;18.10;1.00;;;;;;5049249;28;20032;-81
2021/09/24 08:18:40;;;;;;;24.73;18.98;;;18.30;1.00;;;;;;5049027;28;20076;-81
2021/09/24 08:21:06;;;;;;;25.70;18.25;;;18.50;1.00;;;;;;5049683;28;20064;-81
2021/09/24 08:23:32;;;;;;;28.45;19.23;;;18.40;1.00;;;;;;5050119;28;20029;-81
2021/09/24 08:25:58;;;;;;;25.02;19.48;;;18.50;1.00;;;;;;5050441;28;20104;-81
2021/09/24 08:28:23;;;;;;;29.83;20.70;;;18.50;1.00;;;;;;5048860;28;20029;-80
2021/09/24 08:30:49;;;;;;;26.80;20.13;;;18.50;1.00;;;;;;5029527;28;20021;-80
2021/09/24 08:33:15;;;;;;;25.48;20.23;;;18.50;1.00;;;;;;5049763;28;20544;-81
2021/09/24 08:35:42;;;;;;;24.45;20.73;;;18.50;1.00;;;;;;5049358;28;20437;-81
2021/09/24 08:38:09;;;;;;;22.27;19.35;;;18.60;1.00;;;;;;5051242;28;20123;-80
2021/09/24 08:40:35;;;;;;;26.45;18.25;;;18.50;1.00;;;;;;5048863;28;20485;-81
2021/09/24 08:43:01;;;;;;;27.25;18.05;;;18.90;1.00;;;;;;5048652;28;20056;-80
2021/09/24 08:45:30;;;;;;;22.13;17.58;;;19.20;1.00;;;;;;5048857;28;20056;-80
2021/09/24 08:48:07;;;;;;;21.48;17.40;;;19.60;1.00;;;;;;5049478;28;20033;-81
2021/09/24 08:50:36;;;;;;;21.40;17.23;;;20.00;1.00;;;;;;5049735;28;20013;-81
2021/09/24 08:53:03;;;;;;;25.52;17.85;;;23.10;1.00;;;;;;5050880;28;20033;-81
2021/09/24 08:55:29;;;;;;;21.70;17.30;;;28.50;1.00;;;;;;5048799;28;20117;-81
2021/09/24 08:57:55;;;;;;;22.80;17.23;;;31.80;1.00;;;;;;5048712;28;20557;-81
2021/09/24 09:00:21;;;;;;;19.23;17.20;;;33.60;1.00;;;;;;5049217;28;20108;-81
2021/09/24 09:02:51;;;;;;;19.60;17.40;;;34.20;1.00;;;;;;5050552;28;20029;-81
2021/09/24 09:05:18;;;;;;;20.33;16.90;;;35.90;1.00;;;;;;5055125;28;20091;-81
2021/09/24 09:07:45;;;;;;;21.45;17.08;;;36.70;1.00;;;;;;5053048;28;20516;-81
2021/09/24 09:10:11;;;;;;;22.20;16.27;;;36.70;1.00;;;;;;5050812;28;20220;-81
2021/09/24 09:12:37;;;;;;;18.10;15.43;;;36.10;1.00;;;;;;5052732;28;20445;-81
2021/09/24 09:15:10;;;;;;;18.75;14.93;;;36.50;1.00;;;;;;5052807;28;20087;-81
2021/09/24 09:17:36;;;;;;;18.02;15.55;;;37.50;1.00;;;;;;5053080;28;20036;-82
2021/09/24 09:20:30;;;;;;;16.52;13.70;;;38.60;1.00;;;;;;5054215;28;20421;-82
2021/09/24 09:22:58;;;;;;;13.15;11.82;;;39.30;1.00;;;;;;5053474;28;20469;-82
2021/09/24 09:25:33;;;;;;;12.98;11.65;;;39.60;1.00;;;;;;5052490;28;20075;-81
2021/09/24 09:28:06;;;;;;;15.27;13.18;;;40.30;1.00;;;;;;5051800;28;20029;-82
2021/09/24 09:30:33;;;;;;;13.73;10.98;;;39.10;1.00;;;;;;5052225;28;20028;-82
2021/09/24 09:33:01;;;;;;;22.70;11.80;;;39.80;1.00;;;;;;5052815;28;20029;-82
2021/09/24 09:35:28;;;;;;;14.60;11.60;;;40.80;1.00;;;;;;5053200;28;20029;-81
2021/09/24 09:37:56;;;;;;;12.32;10.65;;;40.00;1.00;;;;;;5053206;28;20037;-82
2021/09/24 09:40:22;;;;;;;13.20;10.65;;;40.60;1.00;;;;;;5051934;28;20025;-82
2021/09/24 09:42:50;;;;;;;12.15;10.68;;;41.30;1.00;;;;;;5052018;28;20040;-82
2021/09/24 09:45:18;;;;;;;13.23;9.70;;;40.10;1.00;;;;;;5034281;28;20108;-82
2021/09/24 09:47:47;;;;;;;12.32;10.77;;;40.70;1.00;;;;;;5052238;28;20048;-82
2021/09/24 09:50:22;;;;;;;10.77;9.77;;;40.50;99.90;;;;;;5053040;28;20453;-83
2021/09/24 09:53:04;;;;;;;11.27;10.10;;;40.40;99.90;;;;;;5052136;28;20484;-82
2021/09/24 09:55:39;;;;;;;10.55;8.98;;;41.40;99.90;;;;;;5051797;28;20033;-83
2021/09/24 09:58:08;;;;;;;11.70;9.48;;;42.40;99.90;;;;;;5047987;28;20045;-83
2021/09/24 10:00:56;;;;;;;8.52;7.63;;;42.10;99.90;;;;;;5051768;28;20485;-82
2021/09/24 10:03:40;;;;;;;9.82;8.57;;;43.20;99.90;;;;;;5051461;28;20093;-82
2021/09/24 10:06:31;;;;;;;8.55;7.75;;;42.30;99.90;;;;;;5038275;28;20067;-83
2021/09/24 10:09:04;;;;;;;10.73;7.85;;;43.00;99.90;;;;;;5037455;28;20556;-82
2021/09/24 10:11:38;;;;;;;10.27;7.72;;;43.00;99.90;;;;;;5052730;28;20063;-82
2021/09/24 10:14:06;;;;;;;8.32;7.18;;;43.00;99.90;;;;;;5051572;28;20049;-82
2021/09/24 10:16:35;;;;;;;9.07;8.13;;;42.40;99.90;;;;;;5052449;28;20090;-83
2021/09/24 10:19:01;;;;;;;8.73;7.75;;;42.40;99.90;;;;;;5051130;28;20501;-83
2021/09/24 10:21:27;;;;;;;8.60;7.70;;;42.40;99.90;;;;;;5051966;28;20029;-83
2021/09/24 10:23:55;;;;;;;8.25;7.40;;;43.00;99.90;;;;;;5052091;28;20485;-82
2021/09/24 10:26:30;;;;;;;7.57;6.88;;;42.10;99.90;;;;;;5053356;28;20060;-83
2021/09/24 10:29:07;;;;;;;8.25;7.22;;;43.20;99.90;;;;;;5052813;28;20028;-83
2021/09/24 10:31:38;;;;;;;8.75;7.85;;;44.20;99.90;;;;;;5051260;28;20025;-82
2021/09/24 10:34:05;;;;;;;8.48;7.50;;;44.60;99.90;;;;;;5051444;28;20473;-82
2021/09/24 10:36:36;;;;;;;8.70;7.70;;;44.40;99.90;;;;;;5051028;28;20107;-83
2021/09/24 10:39:04;;;;;;;8.38;7.65;;;44.70;99.90;;;;;;5050600;28;20559;-83
2021/09/24 10:41:30;;;;;;;8.25;7.40;;;45.00;99.90;;;;;;5051973;28;20029;-83
2021/09/24 10:43:56;;;;;;;8.73;8.02;;;44.30;99.90;;;;;;5053250;28;20497;-83
2021/09/24 10:46:25;;;;;;;8.52;7.63;;;44.30;99.90;;;;;;5051400;28;20039;-83
2021/09/24 10:49:16;;;;;;;8.57;7.78;;;44.50;99.90;;;;;;5051435;28;20025;-83
2021/09/24 10:52:08;;;;;;;10.68;7.80;;;44.50;99.90;;;;;;5051971;28;20014;-83
2021/09/24 10:54:57;;;;;;;8.13;7.43;;;44.90;99.90;;;;;;5051449;28;20086;-83
2021/09/24 10:57:29;;;;;;;8.73;7.43;;;45.40;99.90;;;;;;5033324;28;20462;-83
2021/09/24 11:00:30;;;;;;;7.97;7.28;;;45.50;99.90;;;;;;5035793;28;20064;-83
2021/09/24 11:03:16;;;;;;;7.88;7.13;;;46.20;99.90;;;;;;5035812;28;20756;-83
2021/09/24 11:06:03;;;;;;;7.90;7.20;;;44.80;99.90;;;;;;5050462;28;20049;-83
2021/09/24 11:11:13;;;;;;;9.13;7.35;;;45.00;99.90;;;;;;5052814;28;20040;-83
2021/09/24 11:13:44;;;;;;;8.20;6.93;;;45.80;99.90;;;;;;5050382;28;20045;-82
2021/09/24 11:16:16;;;;;;;6.90;6.22;;;45.50;99.90;;;;;;5051257;28;20517;-83
2021/09/24 11:18:48;;;;;;;11.35;6.93;;;46.10;99.90;;;;;;5050484;28;20037;-84
2021/09/24 11:22:03;;;;;;;10.80;6.30;;;46.90;99.90;;;;;;5051266;28;20037;-82
2021/09/24 11:24:32;;;;;;;6.85;5.75;;;47.90;99.90;;;;;;5025096;28;20025;-81
2021/09/24 11:27:00;;;;;;;11.65;5.50;;;47.50;99.90;;;;;;5050091;28;20025;-81
2021/09/24 11:29:29;;;;;;;9.68;5.40;;;47.10;99.90;;;;;;5051581;28;20048;-82
2021/09/24 11:32:00;;;;;;;10.23;5.32;;;47.90;99.90;;;;;;5051510;28;20440;-82
2021/09/24 11:34:47;;;;;;;7.60;5.25;;;47.80;99.90;;;;;;5050287;28;20035;-82
2021/09/24 11:37:21;;;;;;;7.82;5.50;;;47.50;99.90;;;;;;5050841;28;20503;-82
2021/09/24 11:39:56;;;;;;;5.30;4.80;;;46.60;99.90;;;;;;5050284;28;20033;-81
2021/09/24 11:42:23;;;;;;;13.10;5.22;;;46.80;99.90;;;;;;5049887;28;20080;-82
2021/09/24 11:44:54;;;;;;;7.10;4.63;;;46.80;99.90;;;;;;5048855;28;20033;-82
2021/09/24 11:47:28;;;;;;;5.78;4.88;;;46.50;99.90;;;;;;5048245;28;20029;-82
2021/09/24 11:50:05;;;;;;;4.60;4.25;;;46.30;99.90;;;;;;5051669;28;20028;-82
2021/09/24 11:52:44;;;;;;;4.72;4.40;;;46.60;99.90;;;;;;5050019;28;20040;-82
2021/09/24 11:55:38;;;;;;;8.18;4.47;;;46.20;99.90;;;;;;5049643;28;20103;-82
2021/09/24 11:58:13;;;;;;;5.03;4.53;;;46.40;99.90;;;;;;5049747;28;20124;-82
2021/09/24 12:00:46;;;;;;;6.00;5.40;;;46.70;99.90;;;;;;5050335;28;20035;-82
2021/09/24 12:03:20;;;;;;;5.28;4.53;;;46.20;99.90;;;;;;5050546;28;20028;-82
2021/09/24 12:06:05;;;;;;;5.25;4.85;;;46.40;99.90;;;;;;5050400;28;20048;-82
2021/09/24 12:08:45;;;;;;;6.68;5.10;;;45.40;99.90;;;;;;5048398;28;20021;-82
2021/09/24 12:11:25;;;;;;;5.38;4.97;;;46.20;99.90;;;;;;5051268;28;20021;-81
2021/09/24 12:13:57;;;;;;;11.98;5.50;;;46.20;99.90;;;;;;5048686;28;20064;-82
2021/09/24 12:16:41;;;;;;;5.97;5.38;;;46.00;99.90;;;;;;5049715;28;20029;-82
2021/09/24 12:19:09;;;;;;;6.68;5.05;;;46.20;99.90;;;;;;5049778;28;20033;-82
2021/09/24 12:21:37;;;;;;;5.88;5.38;;;45.80;99.90;;;;;;5049336;28;20555;-82
2021/09/24 12:24:15;;;;;;;6.40;5.82;;;44.90;99.90;;;;;;5048221;28;20046;-82
2021/09/24 12:26:44;;;;;;;5.10;4.60;;;44.60;99.90;;;;;;5050271;28;20119;-81
2021/09/24 12:29:11;;;;;;;5.88;5.38;;;44.70;99.90;;;;;;5052009;28;20036;-82
2021/09/24 12:31:42;;;;;;;5.80;5.03;;;45.10;99.90;;;;;;5049715;28;20094;-82
2021/09/24 12:34:11;;;;;;;7.32;5.15;;;45.10;99.90;;;;;;5049079;28;20535;-82
2021/09/24 12:36:58;;;;;;;5.00;4.60;;;45.10;99.90;;;;;;5051368;28;20028;-82
2021/09/24 12:39:28;;;;;;;5.25;4.60;;;45.10;99.90;;;;;;5053977;28;20033;-82
2021/09/24 12:41:57;;;;;;;4.88;4.43;;;45.70;99.90;;;;;;5037994;28;20033;-82
2021/09/24 12:44:24;;;;;;;5.85;4.85;;;45.40;99.90;;;;;;5055273;28;20039;-82
2021/09/24 12:46:54;;;;;;;10.95;4.70;;;45.10;99.90;;;;;;5052612;28;20512;-82
2021/09/24 12:49:21;;;;;;;6.13;4.85;;;43.50;99.90;;;;;;5053583;28;20033;-82
2021/09/24 12:51:51;;;;;;;34.35;29.60;;;44.50;99.90;;;;;;5053538;28;20021;-82
2021/09/24 12:54:18;;;;;;;18.90;17.20;;;43.30;99.90;;;;;;5053216;28;20363;-82